sensor_id;sensor_type;location;lat;lon;timestamp;P1;durP1;ratioP1;P2;durP2;ratioP2
21657;SDS011;10990;48.174;9.782;2024-02-23T00:02:15;1.10;;;0.40;;
21657;SDS011;10990;48.174;9.782;2024-02-23T00:13:50;1.17;;;0.30;;
21657;SDS011;10990;48.174;9.782;2024-02-23T00:19:18;1.13;;;0.40;;
21657;SDS011;10990;48.174;9.782;2024-02-23T00:25:01;0.90;;;0.20;;
21657;SDS011;10990;48.174;9.782;2024-02-23T00:30:32;1.60;;;0.40;;
21657;SDS011;10990;48.174;9.782;2024-02-23T00:36:00;1.13;;;0.47;;
21657;SDS011;10990;48.174;9.782;2024-02-23T00:41:28;3.03;;;0.40;;
21657;SDS011;10990;48.174;9.782;2024-02-23T00:46:59;1.03;;;0.40;;
21657;SDS011;10990;48.174;9.782;2024-02-23T00:52:27;0.47;;;0.33;;
21657;SDS011;10990;48.174;9.782;2024-02-23T00:57:55;0.93;;;0.40;;
21657;SDS011;10990;48.174;9.782;2024-02-23T01:03:26;0.30;;;0.20;;
21657;SDS011;10990;48.174;9.782;2024-02-23T01:14:58;0.27;;;0.10;;
21657;SDS011;10990;48.174;9.782;2024-02-23T01:20:29;0.27;;;0.10;;
21657;SDS011;10990;48.174;9.782;2024-02-23T01:22:56;0.20;;;0.10;;
21657;SDS011;10990;48.174;9.782;2024-02-23T01:25:22;0.30;;;0.10;;
21657;SDS011;10990;48.174;9.782;2024-02-23T01:27:48;0.10;;;0.10;;
21657;SDS011;10990;48.174;9.782;2024-02-23T01:30:14;0.50;;;0.20;;
21657;SDS011;10990;48.174;9.782;2024-02-23T01:32:40;0.20;;;0.20;;
21657;SDS011;10990;48.174;9.782;2024-02-23T01:35:07;0.20;;;0.20;;
21657;SDS011;10990;48.174;9.782;2024-02-23T01:37:36;0.47;;;0.13;;
21657;SDS011;10990;48.174;9.782;2024-02-23T01:40:02;0.10;;;0.10;;
21657;SDS011;10990;48.174;9.782;2024-02-23T01:42:29;0.10;;;0.10;;
21657;SDS011;10990;48.174;9.782;2024-02-23T01:44:55;0.03;;;0.00;;
21657;SDS011;10990;48.174;9.782;2024-02-23T01:47:21;0.00;;;0.00;;
21657;SDS011;10990;48.174;9.782;2024-02-23T01:49:46;0.50;;;0.10;;
21657;SDS011;10990;48.174;9.782;2024-02-23T01:52:13;0.40;;;0.20;;
21657;SDS011;10990;48.174;9.782;2024-02-23T01:54:42;0.17;;;0.10;;
21657;SDS011;10990;48.174;9.782;2024-02-23T01:57:08;0.20;;;0.00;;
21657;SDS011;10990;48.174;9.782;2024-02-23T01:59:34;0.17;;;0.10;;
21657;SDS011;10990;48.174;9.782;2024-02-23T02:02:01;0.63;;;0.00;;
21657;SDS011;10990;48.174;9.782;2024-02-23T02:04:28;0.57;;;0.10;;
21657;SDS011;10990;48.174;9.782;2024-02-23T02:06:53;0.87;;;0.10;;
21657;SDS011;10990;48.174;9.782;2024-02-23T02:09:20;0.00;;;0.00;;
21657;SDS011;10990;48.174;9.782;2024-02-23T02:11:49;0.00;;;0.00;;
21657;SDS011;10990;48.174;9.782;2024-02-23T02:14:15;0.07;;;0.07;;
21657;SDS011;10990;48.174;9.782;2024-02-23T02:16:42;0.10;;;0.10;;
21657;SDS011;10990;48.174;9.782;2024-02-23T02:19:08;0.00;;;0.00;;
21657;SDS011;10990;48.174;9.782;2024-02-23T02:21:34;0.00;;;0.00;;
21657;SDS011;10990;48.174;9.782;2024-02-23T02:24:01;0.40;;;0.00;;
21657;SDS011;10990;48.174;9.782;2024-02-23T02:26:27;0.10;;;0.10;;
21657;SDS011;10990;48.174;9.782;2024-02-23T02:28:55;0.00;;;0.00;;
21657;SDS011;10990;48.174;9.782;2024-02-23T02:31:21;0.10;;;0.10;;
21657;SDS011;10990;48.174;9.782;2024-02-23T02:33:47;1.43;;;0.20;;
21657;SDS011;10990;48.174;9.782;2024-02-23T02:36:13;0.20;;;0.20;;
21657;SDS011;10990;48.174;9.782;2024-02-23T02:38:39;0.20;;;0.20;;
21657;SDS011;10990;48.174;9.782;2024-02-23T02:41:05;0.20;;;0.20;;
21657;SDS011;10990;48.174;9.782;2024-02-23T02:43:32;0.30;;;0.30;;
21657;SDS011;10990;48.174;9.782;2024-02-23T02:46:00;0.17;;;0.17;;
21657;SDS011;10990;48.174;9.782;2024-02-23T02:48:26;0.20;;;0.20;;
21657;SDS011;10990;48.174;9.782;2024-02-23T02:50:52;0.00;;;0.00;;
21657;SDS011;10990;48.174;9.782;2024-02-23T02:53:18;0.67;;;0.20;;
21657;SDS011;10990;48.174;9.782;2024-02-23T02:55:44;0.10;;;0.10;;
21657;SDS011;10990;48.174;9.782;2024-02-23T02:58:11;0.80;;;0.17;;
21657;SDS011;10990;48.174;9.782;2024-02-23T03:00:37;0.33;;;0.00;;
21657;SDS011;10990;48.174;9.782;2024-02-23T03:03:06;2.57;;;0.10;;
21657;SDS011;10990;48.174;9.782;2024-02-23T03:05:32;0.13;;;0.13;;
21657;SDS011;10990;48.174;9.782;2024-02-23T03:07:58;0.20;;;0.17;;
21657;SDS011;10990;48.174;9.782;2024-02-23T03:10:24;0.50;;;0.20;;
21657;SDS011;10990;48.174;9.782;2024-02-23T03:12:50;0.97;;;0.20;;
21657;SDS011;10990;48.174;9.782;2024-02-23T03:15:16;0.20;;;0.20;;
21657;SDS011;10990;48.174;9.782;2024-02-23T03:17:42;0.17;;;0.13;;
21657;SDS011;10990;48.174;9.782;2024-02-23T03:20:11;0.63;;;0.37;;
21657;SDS011;10990;48.174;9.782;2024-02-23T03:22:37;0.40;;;0.13;;
21657;SDS011;10990;48.174;9.782;2024-02-23T03:25:04;0.93;;;0.10;;
21657;SDS011;10990;48.174;9.782;2024-02-23T03:27:30;0.93;;;0.20;;
21657;SDS011;10990;48.174;9.782;2024-02-23T03:29:56;1.43;;;0.20;;
21657;SDS011;10990;48.174;9.782;2024-02-23T03:32:22;1.43;;;0.30;;
21657;SDS011;10990;48.174;9.782;2024-02-23T03:34:48;0.77;;;0.30;;
21657;SDS011;10990;48.174;9.782;2024-02-23T03:37:17;0.93;;;0.40;;
21657;SDS011;10990;48.174;9.782;2024-02-23T03:39:43;0.80;;;0.27;;
21657;SDS011;10990;48.174;9.782;2024-02-23T03:42:09;0.27;;;0.20;;
21657;SDS011;10990;48.174;9.782;2024-02-23T03:44:35;0.20;;;0.20;;
21657;SDS011;10990;48.174;9.782;2024-02-23T03:47:01;0.57;;;0.30;;
21657;SDS011;10990;48.174;9.782;2024-02-23T03:49:27;2.93;;;0.30;;
21657;SDS011;10990;48.174;9.782;2024-02-23T03:51:53;1.83;;;0.20;;
21657;SDS011;10990;48.174;9.782;2024-02-23T03:54:21;0.77;;;0.30;;
21657;SDS011;10990;48.174;9.782;2024-02-23T03:56:47;3.23;;;0.40;;
21657;SDS011;10990;48.174;9.782;2024-02-23T03:59:13;1.03;;;0.20;;
21657;SDS011;10990;48.174;9.782;2024-02-23T04:01:39;0.20;;;0.17;;
21657;SDS011;10990;48.174;9.782;2024-02-23T04:04:05;0.83;;;0.30;;
21657;SDS011;10990;48.174;9.782;2024-02-23T04:06:31;0.57;;;0.27;;
21657;SDS011;10990;48.174;9.782;2024-02-23T04:08:58;0.20;;;0.13;;
21657;SDS011;10990;48.174;9.782;2024-02-23T04:11:27;0.30;;;0.10;;
21657;SDS011;10990;48.174;9.782;2024-02-23T04:13:53;0.30;;;0.10;;
21657;SDS011;10990;48.174;9.782;2024-02-23T04:16:22;0.30;;;0.20;;
21657;SDS011;10990;48.174;9.782;2024-02-23T04:18:48;0.43;;;0.20;;
21657;SDS011;10990;48.174;9.782;2024-02-23T04:21:14;0.20;;;0.20;;
21657;SDS011;10990;48.174;9.782;2024-02-23T04:23:40;2.17;;;0.37;;
21657;SDS011;10990;48.174;9.782;2024-02-23T04:26:06;4.83;;;0.37;;
21657;SDS011;10990;48.174;9.782;2024-02-23T04:28:37;1.00;;;0.30;;
21657;SDS011;10990;48.174;9.782;2024-02-23T04:31:03;0.23;;;0.10;;
21657;SDS011;10990;48.174;9.782;2024-02-23T04:33:29;1.30;;;0.40;;
21657;SDS011;10990;48.174;9.782;2024-02-23T04:35:55;2.10;;;0.53;;
21657;SDS011;10990;48.174;9.782;2024-02-23T04:38:21;1.53;;;0.90;;
21657;SDS011;10990;48.174;9.782;2024-02-23T04:40:47;3.93;;;1.10;;
21657;SDS011;10990;48.174;9.782;2024-02-23T04:43:14;0.50;;;0.30;;
21657;SDS011;10990;48.174;9.782;2024-02-23T04:45:42;0.60;;;0.37;;
21657;SDS011;10990;48.174;9.782;2024-02-23T04:48:08;1.03;;;0.30;;
21657;SDS011;10990;48.174;9.782;2024-02-23T04:50:35;0.37;;;0.27;;
21657;SDS011;10990;48.174;9.782;2024-02-23T04:53:01;0.33;;;0.20;;
21657;SDS011;10990;48.174;9.782;2024-02-23T04:55:27;0.93;;;0.30;;
21657;SDS011;10990;48.174;9.782;2024-02-23T04:57:53;0.50;;;0.30;;
21657;SDS011;10990;48.174;9.782;2024-02-23T05:00:20;1.90;;;0.30;;
21657;SDS011;10990;48.174;9.782;2024-02-23T05:02:49;0.73;;;0.27;;
21657;SDS011;10990;48.174;9.782;2024-02-23T05:05:15;0.30;;;0.30;;
21657;SDS011;10990;48.174;9.782;2024-02-23T05:07:41;0.20;;;0.20;;
21657;SDS011;10990;48.174;9.782;2024-02-23T05:10:07;0.20;;;0.20;;
21657;SDS011;10990;48.174;9.782;2024-02-23T05:12:34;0.63;;;0.20;;
21657;SDS011;10990;48.174;9.782;2024-02-23T05:15:00;0.30;;;0.20;;
21657;SDS011;10990;48.174;9.782;2024-02-23T05:17:26;0.20;;;0.20;;
21657;SDS011;10990;48.174;9.782;2024-02-23T05:43:08;0.83;;;0.47;;
21657;SDS011;10990;48.174;9.782;2024-02-23T05:45:34;0.40;;;0.40;;
21657;SDS011;10990;48.174;9.782;2024-02-23T05:51:10;0.40;;;0.40;;
21657;SDS011;10990;48.174;9.782;2024-02-23T05:53:51;0.83;;;0.40;;
21657;SDS011;10990;48.174;9.782;2024-02-23T05:56:17;1.40;;;0.40;;
21657;SDS011;10990;48.174;9.782;2024-02-23T05:58:48;1.23;;;0.40;;
21657;SDS011;10990;48.174;9.782;2024-02-23T06:04:04;0.40;;;0.40;;
21657;SDS011;10990;48.174;9.782;2024-02-23T06:15:39;0.60;;;0.37;;
21657;SDS011;10990;48.174;9.782;2024-02-23T06:24:09;2.13;;;1.30;;
21657;SDS011;10990;48.174;9.782;2024-02-23T06:29:46;3.10;;;1.00;;
21657;SDS011;10990;48.174;9.782;2024-02-23T06:32:24;1.50;;;0.60;;
21657;SDS011;10990;48.174;9.782;2024-02-23T06:37:52;0.70;;;0.50;;
21657;SDS011;10990;48.174;9.782;2024-02-23T06:40:18;1.43;;;0.60;;
21657;SDS011;10990;48.174;9.782;2024-02-23T06:42:44;2.87;;;0.70;;
21657;SDS011;10990;48.174;9.782;2024-02-23T06:45:10;2.10;;;0.60;;
21657;SDS011;10990;48.174;9.782;2024-02-23T06:47:39;2.23;;;0.70;;
21657;SDS011;10990;48.174;9.782;2024-02-23T06:50:06;2.57;;;0.50;;
21657;SDS011;10990;48.174;9.782;2024-02-23T06:52:32;1.27;;;0.60;;
21657;SDS011;10990;48.174;9.782;2024-02-23T06:54:58;1.57;;;0.50;;
21657;SDS011;10990;48.174;9.782;2024-02-23T06:57:24;2.60;;;0.50;;
21657;SDS011;10990;48.174;9.782;2024-02-23T06:59:50;0.73;;;0.40;;
21657;SDS011;10990;48.174;9.782;2024-02-23T07:02:16;0.60;;;0.30;;
21657;SDS011;10990;48.174;9.782;2024-02-23T07:04:45;0.90;;;0.40;;
21657;SDS011;10990;48.174;9.782;2024-02-23T07:07:11;3.67;;;0.60;;
21657;SDS011;10990;48.174;9.782;2024-02-23T07:09:37;1.07;;;0.50;;
21657;SDS011;10990;48.174;9.782;2024-02-23T07:12:03;1.80;;;0.50;;
21657;SDS011;10990;48.174;9.782;2024-02-23T07:14:30;3.17;;;0.67;;
21657;SDS011;10990;48.174;9.782;2024-02-23T07:16:56;0.90;;;0.70;;
21657;SDS011;10990;48.174;9.782;2024-02-23T07:19:22;12.60;;;7.63;;
21657;SDS011;10990;48.174;9.782;2024-02-23T07:21:50;33.50;;;18.30;;
21657;SDS011;10990;48.174;9.782;2024-02-23T07:24:16;12.80;;;7.83;;
21657;SDS011;10990;48.174;9.782;2024-02-23T07:26:42;7.53;;;5.40;;
21657;SDS011;10990;48.174;9.782;2024-02-23T07:29:08;7.80;;;4.63;;
21657;SDS011;10990;48.174;9.782;2024-02-23T07:31:34;5.23;;;2.70;;
21657;SDS011;10990;48.174;9.782;2024-02-23T07:34:00;6.13;;;3.00;;
21657;SDS011;10990;48.174;9.782;2024-02-23T07:36:26;6.77;;;4.27;;
21657;SDS011;10990;48.174;9.782;2024-02-23T07:38:55;4.33;;;3.03;;
21657;SDS011;10990;48.174;9.782;2024-02-23T07:41:21;3.40;;;2.23;;
21657;SDS011;10990;48.174;9.782;2024-02-23T07:43:47;2.13;;;1.53;;
21657;SDS011;10990;48.174;9.782;2024-02-23T07:46:13;2.60;;;0.90;;
21657;SDS011;10990;48.174;9.782;2024-02-23T07:48:39;2.67;;;0.60;;
21657;SDS011;10990;48.174;9.782;2024-02-23T07:51:05;1.97;;;0.60;;
21657;SDS011;10990;48.174;9.782;2024-02-23T07:53:31;2.47;;;0.70;;
21657;SDS011;10990;48.174;9.782;2024-02-23T07:55:59;2.03;;;0.67;;
21657;SDS011;10990;48.174;9.782;2024-02-23T07:58:25;7.17;;;4.80;;
21657;SDS011;10990;48.174;9.782;2024-02-23T08:00:51;11.07;;;8.10;;
21657;SDS011;10990;48.174;9.782;2024-02-23T08:03:17;6.93;;;3.00;;
21657;SDS011;10990;48.174;9.782;2024-02-23T08:05:43;9.10;;;6.00;;
21657;SDS011;10990;48.174;9.782;2024-02-23T08:08:09;6.67;;;2.93;;
21657;SDS011;10990;48.174;9.782;2024-02-23T08:10:35;2.27;;;1.63;;
21657;SDS011;10990;48.174;9.782;2024-02-23T08:13:04;4.27;;;1.50;;
21657;SDS011;10990;48.174;9.782;2024-02-23T08:15:31;3.03;;;1.30;;
21657;SDS011;10990;48.174;9.782;2024-02-23T08:17:57;2.50;;;0.60;;
21657;SDS011;10990;48.174;9.782;2024-02-23T08:20:22;2.13;;;0.70;;
21657;SDS011;10990;48.174;9.782;2024-02-23T08:22:48;2.80;;;0.70;;
21657;SDS011;10990;48.174;9.782;2024-02-23T08:25:14;2.53;;;0.60;;
21657;SDS011;10990;48.174;9.782;2024-02-23T08:27:41;2.33;;;0.80;;
21657;SDS011;10990;48.174;9.782;2024-02-23T08:30:10;2.50;;;0.67;;
21657;SDS011;10990;48.174;9.782;2024-02-23T08:32:38;2.23;;;0.77;;
21657;SDS011;10990;48.174;9.782;2024-02-23T08:35:05;1.73;;;0.60;;
21657;SDS011;10990;48.174;9.782;2024-02-23T08:37:32;3.40;;;0.60;;
21657;SDS011;10990;48.174;9.782;2024-02-23T08:39:58;1.07;;;0.70;;
21657;SDS011;10990;48.174;9.782;2024-02-23T08:42:24;1.60;;;0.83;;
21657;SDS011;10990;48.174;9.782;2024-02-23T08:44:50;2.53;;;0.70;;
21657;SDS011;10990;48.174;9.782;2024-02-23T08:47:18;2.60;;;0.50;;
21657;SDS011;10990;48.174;9.782;2024-02-23T08:49:44;5.23;;;0.90;;
21657;SDS011;10990;48.174;9.782;2024-02-23T08:52:10;3.00;;;0.70;;
21657;SDS011;10990;48.174;9.782;2024-02-23T08:54:36;3.67;;;0.70;;
21657;SDS011;10990;48.174;9.782;2024-02-23T08:57:02;4.60;;;1.00;;
21657;SDS011;10990;48.174;9.782;2024-02-23T08:59:29;3.23;;;0.80;;
21657;SDS011;10990;48.174;9.782;2024-02-23T09:01:59;3.60;;;0.80;;
21657;SDS011;10990;48.174;9.782;2024-02-23T09:04:28;3.63;;;0.87;;
21657;SDS011;10990;48.174;9.782;2024-02-23T09:06:55;4.10;;;0.90;;
21657;SDS011;10990;48.174;9.782;2024-02-23T09:09:21;2.70;;;0.67;;
21657;SDS011;10990;48.174;9.782;2024-02-23T09:11:47;1.57;;;0.60;;
21657;SDS011;10990;48.174;9.782;2024-02-23T09:14:14;5.33;;;0.90;;
21657;SDS011;10990;48.174;9.782;2024-02-23T09:16:40;4.27;;;0.87;;
21657;SDS011;10990;48.174;9.782;2024-02-23T09:19:06;4.37;;;0.90;;
21657;SDS011;10990;48.174;9.782;2024-02-23T09:21:35;6.30;;;0.93;;
21657;SDS011;10990;48.174;9.782;2024-02-23T09:24:01;3.60;;;0.90;;
21657;SDS011;10990;48.174;9.782;2024-02-23T09:26:27;3.03;;;0.80;;
21657;SDS011;10990;48.174;9.782;2024-02-23T09:28:53;4.73;;;0.90;;
21657;SDS011;10990;48.174;9.782;2024-02-23T09:31:19;5.90;;;0.80;;
21657;SDS011;10990;48.174;9.782;2024-02-23T09:33:45;4.67;;;1.00;;
21657;SDS011;10990;48.174;9.782;2024-02-23T09:36:11;2.53;;;0.60;;
21657;SDS011;10990;48.174;9.782;2024-02-23T09:38:39;1.33;;;0.57;;
21657;SDS011;10990;48.174;9.782;2024-02-23T09:41:07;3.93;;;0.80;;
21657;SDS011;10990;48.174;9.782;2024-02-23T09:43:40;3.27;;;0.77;;
21657;SDS011;10990;48.174;9.782;2024-02-23T09:46:09;3.73;;;0.80;;
21657;SDS011;10990;48.174;9.782;2024-02-23T09:48:36;3.97;;;0.80;;
21657;SDS011;10990;48.174;9.782;2024-02-23T09:51:03;3.57;;;0.77;;
21657;SDS011;10990;48.174;9.782;2024-02-23T09:53:31;7.90;;;1.20;;
21657;SDS011;10990;48.174;9.782;2024-02-23T09:56:00;2.63;;;0.73;;
21657;SDS011;10990;48.174;9.782;2024-02-23T09:58:28;4.93;;;1.00;;
21657;SDS011;10990;48.174;9.782;2024-02-23T10:00:55;3.60;;;1.00;;
21657;SDS011;10990;48.174;9.782;2024-02-23T10:03:24;2.70;;;0.67;;
21657;SDS011;10990;48.174;9.782;2024-02-23T10:05:50;5.37;;;1.07;;
21657;SDS011;10990;48.174;9.782;2024-02-23T10:08:16;3.37;;;0.90;;
21657;SDS011;10990;48.174;9.782;2024-02-23T10:10:42;4.17;;;1.03;;
21657;SDS011;10990;48.174;9.782;2024-02-23T10:13:14;3.73;;;1.03;;
21657;SDS011;10990;48.174;9.782;2024-02-23T10:15:43;4.47;;;0.80;;
21657;SDS011;10990;48.174;9.782;2024-02-23T10:18:09;5.20;;;0.90;;
21657;SDS011;10990;48.174;9.782;2024-02-23T10:20:35;3.10;;;0.77;;
21657;SDS011;10990;48.174;9.782;2024-02-23T10:23:01;7.73;;;0.90;;
21657;SDS011;10990;48.174;9.782;2024-02-23T10:25:27;2.30;;;0.80;;
21657;SDS011;10990;48.174;9.782;2024-02-23T10:27:53;4.77;;;0.80;;
21657;SDS011;10990;48.174;9.782;2024-02-23T10:30:22;4.70;;;0.80;;
21657;SDS011;10990;48.174;9.782;2024-02-23T10:32:48;4.70;;;0.90;;
21657;SDS011;10990;48.174;9.782;2024-02-23T10:35:18;3.03;;;0.80;;
21657;SDS011;10990;48.174;9.782;2024-02-23T10:37:47;3.23;;;0.80;;
21657;SDS011;10990;48.174;9.782;2024-02-23T10:40:14;4.50;;;1.00;;
21657;SDS011;10990;48.174;9.782;2024-02-23T10:42:43;2.57;;;0.90;;
21657;SDS011;10990;48.174;9.782;2024-02-23T10:45:10;3.40;;;0.80;;
21657;SDS011;10990;48.174;9.782;2024-02-23T10:47:39;5.63;;;1.07;;
21657;SDS011;10990;48.174;9.782;2024-02-23T10:50:05;2.60;;;0.67;;
21657;SDS011;10990;48.174;9.782;2024-02-23T10:52:32;2.87;;;0.77;;
21657;SDS011;10990;48.174;9.782;2024-02-23T10:55:00;1.20;;;0.50;;
21657;SDS011;10990;48.174;9.782;2024-02-23T10:57:26;3.67;;;0.80;;
21657;SDS011;10990;48.174;9.782;2024-02-23T10:59:53;4.27;;;0.80;;
21657;SDS011;10990;48.174;9.782;2024-02-23T11:02:19;3.00;;;0.83;;
21657;SDS011;10990;48.174;9.782;2024-02-23T11:04:50;2.97;;;1.00;;
21657;SDS011;10990;48.174;9.782;2024-02-23T11:07:18;2.33;;;0.97;;
21657;SDS011;10990;48.174;9.782;2024-02-23T11:09:48;5.03;;;1.03;;
21657;SDS011;10990;48.174;9.782;2024-02-23T11:12:21;2.37;;;1.00;;
21657;SDS011;10990;48.174;9.782;2024-02-23T11:14:48;2.43;;;0.90;;
21657;SDS011;10990;48.174;9.782;2024-02-23T11:17:17;2.90;;;0.90;;
21657;SDS011;10990;48.174;9.782;2024-02-23T11:19:45;2.43;;;1.00;;
21657;SDS011;10990;48.174;9.782;2024-02-23T11:22:20;3.77;;;0.70;;
21657;SDS011;10990;48.174;9.782;2024-02-23T11:24:49;2.90;;;0.80;;
21657;SDS011;10990;48.174;9.782;2024-02-23T11:27:15;2.93;;;1.00;;
21657;SDS011;10990;48.174;9.782;2024-02-23T11:29:41;2.97;;;1.07;;
21657;SDS011;10990;48.174;9.782;2024-02-23T11:32:12;3.60;;;0.80;;
21657;SDS011;10990;48.174;9.782;2024-02-23T11:34:38;3.50;;;1.17;;
21657;SDS011;10990;48.174;9.782;2024-02-23T11:37:07;2.10;;;0.80;;
21657;SDS011;10990;48.174;9.782;2024-02-23T11:39:38;2.27;;;0.70;;
21657;SDS011;10990;48.174;9.782;2024-02-23T11:42:04;3.27;;;0.80;;
21657;SDS011;10990;48.174;9.782;2024-02-23T11:44:31;3.43;;;0.90;;
21657;SDS011;10990;48.174;9.782;2024-02-23T11:46:58;1.73;;;0.80;;
21657;SDS011;10990;48.174;9.782;2024-02-23T11:49:27;4.37;;;1.10;;
21657;SDS011;10990;48.174;9.782;2024-02-23T11:51:53;2.30;;;0.70;;
21657;SDS011;10990;48.174;9.782;2024-02-23T11:54:19;1.87;;;0.60;;
21657;SDS011;10990;48.174;9.782;2024-02-23T11:56:48;2.70;;;1.00;;
21657;SDS011;10990;48.174;9.782;2024-02-23T11:59:14;2.33;;;1.00;;
21657;SDS011;10990;48.174;9.782;2024-02-23T12:01:40;4.13;;;1.10;;
21657;SDS011;10990;48.174;9.782;2024-02-23T12:04:06;2.53;;;1.00;;
21657;SDS011;10990;48.174;9.782;2024-02-23T12:06:32;2.63;;;1.00;;
21657;SDS011;10990;48.174;9.782;2024-02-23T12:08:59;3.83;;;1.40;;
21657;SDS011;10990;48.174;9.782;2024-02-23T12:11:25;5.57;;;2.10;;
21657;SDS011;10990;48.174;9.782;2024-02-23T12:13:54;5.80;;;1.83;;
21657;SDS011;10990;48.174;9.782;2024-02-23T12:16:20;3.90;;;1.23;;
21657;SDS011;10990;48.174;9.782;2024-02-23T12:18:53;3.67;;;1.40;;
21657;SDS011;10990;48.174;9.782;2024-02-23T12:21:20;11.23;;;3.87;;
21657;SDS011;10990;48.174;9.782;2024-02-23T12:23:48;4.43;;;1.63;;
21657;SDS011;10990;48.174;9.782;2024-02-23T12:26:15;7.53;;;1.60;;
21657;SDS011;10990;48.174;9.782;2024-02-23T12:28:42;2.43;;;0.87;;
21657;SDS011;10990;48.174;9.782;2024-02-23T12:31:11;1.53;;;0.80;;
21657;SDS011;10990;48.174;9.782;2024-02-23T12:33:37;1.80;;;0.90;;
21657;SDS011;10990;48.174;9.782;2024-02-23T12:36:04;5.63;;;1.20;;
21657;SDS011;10990;48.174;9.782;2024-02-23T12:38:31;3.23;;;1.03;;
21657;SDS011;10990;48.174;9.782;2024-02-23T12:40:57;2.23;;;1.00;;
21657;SDS011;10990;48.174;9.782;2024-02-23T12:43:24;3.17;;;1.00;;
21657;SDS011;10990;48.174;9.782;2024-02-23T12:45:50;2.33;;;0.93;;
21657;SDS011;10990;48.174;9.782;2024-02-23T12:48:19;1.30;;;0.93;;
21657;SDS011;10990;48.174;9.782;2024-02-23T12:50:45;1.90;;;1.10;;
21657;SDS011;10990;48.174;9.782;2024-02-23T12:53:12;3.87;;;0.90;;
21657;SDS011;10990;48.174;9.782;2024-02-23T12:55:55;2.83;;;1.00;;
21657;SDS011;10990;48.174;9.782;2024-02-23T12:58:21;1.83;;;0.80;;
21657;SDS011;10990;48.174;9.782;2024-02-23T13:00:47;2.90;;;0.97;;
21657;SDS011;10990;48.174;9.782;2024-02-23T13:03:13;2.93;;;0.80;;
21657;SDS011;10990;48.174;9.782;2024-02-23T13:05:42;4.30;;;1.00;;
21657;SDS011;10990;48.174;9.782;2024-02-23T13:08:08;6.73;;;0.93;;
21657;SDS011;10990;48.174;9.782;2024-02-23T13:10:34;1.20;;;0.67;;
21657;SDS011;10990;48.174;9.782;2024-02-23T13:13:00;3.57;;;0.97;;
21657;SDS011;10990;48.174;9.782;2024-02-23T13:15:26;2.83;;;1.00;;
21657;SDS011;10990;48.174;9.782;2024-02-23T13:17:52;4.67;;;0.87;;
21657;SDS011;10990;48.174;9.782;2024-02-23T13:20:18;3.63;;;0.90;;
21657;SDS011;10990;48.174;9.782;2024-02-23T13:22:46;3.10;;;0.90;;
21657;SDS011;10990;48.174;9.782;2024-02-23T13:25:12;2.27;;;0.90;;
21657;SDS011;10990;48.174;9.782;2024-02-23T13:27:38;2.03;;;1.10;;
21657;SDS011;10990;48.174;9.782;2024-02-23T13:30:05;2.13;;;0.90;;
21657;SDS011;10990;48.174;9.782;2024-02-23T13:32:32;2.43;;;0.77;;
21657;SDS011;10990;48.174;9.782;2024-02-23T13:34:58;1.70;;;0.90;;
21657;SDS011;10990;48.174;9.782;2024-02-23T13:37:24;4.47;;;1.03;;
21657;SDS011;10990;48.174;9.782;2024-02-23T13:39:52;2.50;;;0.80;;
21657;SDS011;10990;48.174;9.782;2024-02-23T13:42:18;3.87;;;1.00;;
21657;SDS011;10990;48.174;9.782;2024-02-23T13:44:44;2.27;;;0.77;;
21657;SDS011;10990;48.174;9.782;2024-02-23T13:47:11;2.77;;;0.90;;
21657;SDS011;10990;48.174;9.782;2024-02-23T13:49:37;2.37;;;0.77;;
21657;SDS011;10990;48.174;9.782;2024-02-23T13:52:03;2.40;;;1.00;;
21657;SDS011;10990;48.174;9.782;2024-02-23T13:54:29;1.37;;;0.80;;
21657;SDS011;10990;48.174;9.782;2024-02-23T13:56:58;2.57;;;0.87;;
21657;SDS011;10990;48.174;9.782;2024-02-23T13:59:24;4.03;;;1.00;;
21657;SDS011;10990;48.174;9.782;2024-02-23T14:01:50;4.03;;;0.90;;
21657;SDS011;10990;48.174;9.782;2024-02-23T14:04:16;5.67;;;1.07;;
21657;SDS011;10990;48.174;9.782;2024-02-23T14:06:42;4.80;;;0.97;;
21657;SDS011;10990;48.174;9.782;2024-02-23T14:09:08;4.37;;;1.00;;
21657;SDS011;10990;48.174;9.782;2024-02-23T14:11:35;2.20;;;0.83;;
21657;SDS011;10990;48.174;9.782;2024-02-23T14:14:03;2.53;;;0.90;;
21657;SDS011;10990;48.174;9.782;2024-02-23T14:16:29;3.33;;;1.00;;
21657;SDS011;10990;48.174;9.782;2024-02-23T14:18:55;2.13;;;0.87;;
21657;SDS011;10990;48.174;9.782;2024-02-23T14:21:21;3.17;;;1.23;;
21657;SDS011;10990;48.174;9.782;2024-02-23T14:23:47;1.43;;;0.90;;
21657;SDS011;10990;48.174;9.782;2024-02-23T14:26:13;1.63;;;0.90;;
21657;SDS011;10990;48.174;9.782;2024-02-23T14:28:39;4.47;;;1.30;;
21657;SDS011;10990;48.174;9.782;2024-02-23T14:31:08;3.47;;;0.93;;
21657;SDS011;10990;48.174;9.782;2024-02-23T14:33:34;4.73;;;1.20;;
21657;SDS011;10990;48.174;9.782;2024-02-23T14:36:00;2.43;;;1.03;;
21657;SDS011;10990;48.174;9.782;2024-02-23T14:38:26;7.03;;;1.03;;
21657;SDS011;10990;48.174;9.782;2024-02-23T14:40:52;3.30;;;0.87;;
21657;SDS011;10990;48.174;9.782;2024-02-23T14:43:18;4.03;;;0.90;;
21657;SDS011;10990;48.174;9.782;2024-02-23T14:45:44;3.93;;;0.87;;
21657;SDS011;10990;48.174;9.782;2024-02-23T14:48:13;2.80;;;1.07;;
21657;SDS011;10990;48.174;9.782;2024-02-23T14:50:38;4.83;;;0.87;;
21657;SDS011;10990;48.174;9.782;2024-02-23T14:53:05;1.70;;;0.70;;
21657;SDS011;10990;48.174;9.782;2024-02-23T14:55:30;4.50;;;1.27;;
21657;SDS011;10990;48.174;9.782;2024-02-23T14:57:56;6.90;;;1.00;;
21657;SDS011;10990;48.174;9.782;2024-02-23T15:00:22;2.93;;;1.10;;
21657;SDS011;10990;48.174;9.782;2024-02-23T15:02:48;4.20;;;0.90;;
21657;SDS011;10990;48.174;9.782;2024-02-23T15:05:17;2.30;;;0.80;;
21657;SDS011;10990;48.174;9.782;2024-02-23T15:07:43;2.50;;;0.80;;
21657;SDS011;10990;48.174;9.782;2024-02-23T15:10:09;3.73;;;0.73;;
21657;SDS011;10990;48.174;9.782;2024-02-23T15:12:35;3.43;;;0.80;;
21657;SDS011;10990;48.174;9.782;2024-02-23T15:15:01;2.03;;;0.70;;
21657;SDS011;10990;48.174;9.782;2024-02-23T15:17:28;2.33;;;0.70;;
21657;SDS011;10990;48.174;9.782;2024-02-23T15:19:54;1.03;;;0.50;;
21657;SDS011;10990;48.174;9.782;2024-02-23T15:22:22;2.30;;;0.73;;
21657;SDS011;10990;48.174;9.782;2024-02-23T15:24:49;4.53;;;0.90;;
21657;SDS011;10990;48.174;9.782;2024-02-23T15:27:15;2.63;;;0.90;;
21657;SDS011;10990;48.174;9.782;2024-02-23T15:29:41;2.67;;;0.77;;
21657;SDS011;10990;48.174;9.782;2024-02-23T15:32:08;3.63;;;0.80;;
21657;SDS011;10990;48.174;9.782;2024-02-23T15:34:34;0.97;;;0.70;;
21657;SDS011;10990;48.174;9.782;2024-02-23T15:37:00;1.20;;;0.87;;
21657;SDS011;10990;48.174;9.782;2024-02-23T15:39:28;2.93;;;0.93;;
21657;SDS011;10990;48.174;9.782;2024-02-23T15:41:54;2.83;;;0.80;;
21657;SDS011;10990;48.174;9.782;2024-02-23T15:44:20;1.70;;;0.97;;
21657;SDS011;10990;48.174;9.782;2024-02-23T15:46:46;2.03;;;0.80;;
21657;SDS011;10990;48.174;9.782;2024-02-23T15:49:12;4.63;;;0.80;;
21657;SDS011;10990;48.174;9.782;2024-02-23T15:51:38;1.83;;;0.73;;
21657;SDS011;10990;48.174;9.782;2024-02-23T15:54:04;2.57;;;1.40;;
21657;SDS011;10990;48.174;9.782;2024-02-23T15:56:33;4.40;;;1.23;;
21657;SDS011;10990;48.174;9.782;2024-02-23T15:58:59;3.40;;;1.60;;
21657;SDS011;10990;48.174;9.782;2024-02-23T16:01:25;10.43;;;4.80;;
21657;SDS011;10990;48.174;9.782;2024-02-23T16:03:51;4.40;;;2.03;;
21657;SDS011;10990;48.174;9.782;2024-02-23T16:06:17;5.30;;;1.73;;
21657;SDS011;10990;48.174;9.782;2024-02-23T16:08:44;5.10;;;1.40;;
21657;SDS011;10990;48.174;9.782;2024-02-23T16:11:11;5.43;;;1.47;;
21657;SDS011;10990;48.174;9.782;2024-02-23T16:13:40;9.93;;;3.67;;
21657;SDS011;10990;48.174;9.782;2024-02-23T16:16:07;12.40;;;4.93;;
21657;SDS011;10990;48.174;9.782;2024-02-23T16:18:34;12.00;;;5.53;;
21657;SDS011;10990;48.174;9.782;2024-02-23T16:21:00;11.20;;;5.80;;
21657;SDS011;10990;48.174;9.782;2024-02-23T16:23:27;3.73;;;1.90;;
21657;SDS011;10990;48.174;9.782;2024-02-23T16:25:53;4.37;;;1.73;;